sensor_id;sensor_type;location;lat;lon;timestamp;P1;durP1;ratioP1;P2;durP2;ratioP2
52740;SDS011;38634;52.138;9.912;2022-11-20T00:02:33;12.30;;;4.32;;
52740;SDS011;38634;52.138;9.912;2022-11-20T00:05:17;12.95;;;4.35;;
52740;SDS011;38634;52.138;9.912;2022-11-20T00:08:03;11.20;;;3.90;;
52740;SDS011;38634;52.138;9.912;2022-11-20T00:10:47;12.95;;;4.20;;
52740;SDS011;38634;52.138;9.912;2022-11-20T00:13:32;12.80;;;4.43;;
52740;SDS011;38634;52.138;9.912;2022-11-20T00:16:18;11.88;;;3.95;;
52740;SDS011;38634;52.138;9.912;2022-11-20T00:19:05;12.30;;;4.32;;
52740;SDS011;38634;52.138;9.912;2022-11-20T00:21:49;12.52;;;3.95;;
52740;SDS011;38634;52.138;9.912;2022-11-20T00:24:38;16.92;;;5.43;;
52740;SDS011;38634;52.138;9.912;2022-11-20T00:27:23;12.95;;;3.95;;
52740;SDS011;38634;52.138;9.912;2022-11-20T00:30:08;13.32;;;4.22;;
52740;SDS011;38634;52.138;9.912;2022-11-20T00:32:53;13.48;;;4.60;;
52740;SDS011;38634;52.138;9.912;2022-11-20T00:35:37;10.60;;;4.75;;
52740;SDS011;38634;52.138;9.912;2022-11-20T00:38:22;11.65;;;4.55;;
52740;SDS011;38634;52.138;9.912;2022-11-20T00:41:07;10.00;;;4.20;;
52740;SDS011;38634;52.138;9.912;2022-11-20T00:43:54;12.65;;;5.68;;
52740;SDS011;38634;52.138;9.912;2022-11-20T00:46:39;12.35;;;4.03;;
52740;SDS011;38634;52.138;9.912;2022-11-20T00:49:24;11.57;;;5.35;;
52740;SDS011;38634;52.138;9.912;2022-11-20T00:52:08;12.93;;;4.18;;
52740;SDS011;38634;52.138;9.912;2022-11-20T00:54:53;10.35;;;4.88;;
52740;SDS011;38634;52.138;9.912;2022-11-20T00:57:37;8.18;;;3.70;;
52740;SDS011;38634;52.138;9.912;2022-11-20T01:00:22;7.22;;;3.80;;
52740;SDS011;38634;52.138;9.912;2022-11-20T01:03:07;10.90;;;4.45;;
52740;SDS011;38634;52.138;9.912;2022-11-20T01:05:51;18.45;;;9.50;;
52740;SDS011;38634;52.138;9.912;2022-11-20T01:08:36;12.82;;;4.10;;
52740;SDS011;38634;52.138;9.912;2022-11-20T01:11:40;21.10;;;7.07;;
52740;SDS011;38634;52.138;9.912;2022-11-20T01:14:27;13.23;;;4.68;;
52740;SDS011;38634;52.138;9.912;2022-11-20T01:17:12;11.35;;;3.90;;
52740;SDS011;38634;52.138;9.912;2022-11-20T01:19:56;14.52;;;4.35;;
52740;SDS011;38634;52.138;9.912;2022-11-20T01:22:41;10.18;;;4.00;;
52740;SDS011;38634;52.138;9.912;2022-11-20T01:25:25;14.80;;;4.97;;
52740;SDS011;38634;52.138;9.912;2022-11-20T01:28:10;15.90;;;4.88;;
52740;SDS011;38634;52.138;9.912;2022-11-20T01:30:55;20.58;;;6.22;;
52740;SDS011;38634;52.138;9.912;2022-11-20T01:33:39;14.32;;;4.85;;
52740;SDS011;38634;52.138;9.912;2022-11-20T01:36:25;14.32;;;4.53;;
52740;SDS011;38634;52.138;9.912;2022-11-20T01:39:13;13.50;;;4.43;;
52740;SDS011;38634;52.138;9.912;2022-11-20T01:42:00;11.70;;;4.20;;
52740;SDS011;38634;52.138;9.912;2022-11-20T01:48:51;14.18;;;4.53;;
52740;SDS011;38634;52.138;9.912;2022-11-20T01:51:56;14.32;;;5.05;;
52740;SDS011;38634;52.138;9.912;2022-11-20T01:54:47;13.43;;;4.13;;
52740;SDS011;38634;52.138;9.912;2022-11-20T01:57:57;14.55;;;5.03;;
52740;SDS011;38634;52.138;9.912;2022-11-20T02:00:42;14.07;;;4.57;;
52740;SDS011;38634;52.138;9.912;2022-11-20T02:03:27;14.52;;;4.70;;
52740;SDS011;38634;52.138;9.912;2022-11-20T02:06:13;14.38;;;4.70;;
52740;SDS011;38634;52.138;9.912;2022-11-20T02:09:09;10.75;;;3.95;;
52740;SDS011;38634;52.138;9.912;2022-11-20T02:11:55;14.48;;;4.65;;
52740;SDS011;38634;52.138;9.912;2022-11-20T02:14:40;13.05;;;4.57;;
52740;SDS011;38634;52.138;9.912;2022-11-20T02:17:24;7.93;;;3.80;;
52740;SDS011;38634;52.138;9.912;2022-11-20T02:20:09;13.40;;;4.38;;
52740;SDS011;38634;52.138;9.912;2022-11-20T02:25:42;15.32;;;4.68;;
52740;SDS011;38634;52.138;9.912;2022-11-20T02:28:27;10.48;;;3.88;;
52740;SDS011;38634;52.138;9.912;2022-11-20T02:31:11;14.07;;;4.60;;
52740;SDS011;38634;52.138;9.912;2022-11-20T02:33:56;9.38;;;3.88;;
52740;SDS011;38634;52.138;9.912;2022-11-20T02:36:41;13.68;;;5.03;;
52740;SDS011;38634;52.138;9.912;2022-11-20T02:39:26;14.07;;;4.70;;
52740;SDS011;38634;52.138;9.912;2022-11-20T02:42:12;16.27;;;4.72;;
52740;SDS011;38634;52.138;9.912;2022-11-20T02:45:00;15.38;;;4.72;;
52740;SDS011;38634;52.138;9.912;2022-11-20T02:47:44;14.05;;;4.45;;
52740;SDS011;38634;52.138;9.912;2022-11-20T02:50:29;14.57;;;4.50;;
52740;SDS011;38634;52.138;9.912;2022-11-20T02:53:13;15.23;;;4.63;;
52740;SDS011;38634;52.138;9.912;2022-11-20T02:55:58;14.00;;;4.38;;
52740;SDS011;38634;52.138;9.912;2022-11-20T02:58:42;12.45;;;4.43;;
52740;SDS011;38634;52.138;9.912;2022-11-20T03:01:27;19.90;;;6.93;;
52740;SDS011;38634;52.138;9.912;2022-11-20T03:04:12;19.08;;;5.68;;
52740;SDS011;38634;52.138;9.912;2022-11-20T03:06:56;14.55;;;4.28;;
52740;SDS011;38634;52.138;9.912;2022-11-20T03:09:41;14.05;;;5.25;;
52740;SDS011;38634;52.138;9.912;2022-11-20T03:12:26;13.48;;;4.70;;
52740;SDS011;38634;52.138;9.912;2022-11-20T03:15:10;9.90;;;3.80;;
52740;SDS011;38634;52.138;9.912;2022-11-20T03:17:55;12.95;;;4.43;;
52740;SDS011;38634;52.138;9.912;2022-11-20T03:20:40;15.00;;;4.57;;
52740;SDS011;38634;52.138;9.912;2022-11-20T03:23:24;13.23;;;5.03;;
52740;SDS011;38634;52.138;9.912;2022-11-20T03:29:03;15.77;;;4.50;;
52740;SDS011;38634;52.138;9.912;2022-11-20T03:31:48;12.93;;;4.32;;
52740;SDS011;38634;52.138;9.912;2022-11-20T03:34:33;13.93;;;4.55;;
52740;SDS011;38634;52.138;9.912;2022-11-20T13:01:55;14.38;;;3.65;;
52740;SDS011;38634;52.138;9.912;2022-11-20T13:08:03;4.82;;;2.78;;
52740;SDS011;38634;52.138;9.912;2022-11-20T13:10:55;7.25;;;3.10;;
52740;SDS011;38634;52.138;9.912;2022-11-20T13:17:47;10.88;;;4.43;;
52740;SDS011;38634;52.138;9.912;2022-11-20T13:20:43;5.47;;;2.65;;
52740;SDS011;38634;52.138;9.912;2022-11-20T13:23:28;11.95;;;3.70;;
52740;SDS011;38634;52.138;9.912;2022-11-20T13:26:17;11.25;;;3.72;;
52740;SDS011;38634;52.138;9.912;2022-11-20T13:29:16;10.10;;;3.40;;
52740;SDS011;38634;52.138;9.912;2022-11-20T13:32:18;13.77;;;3.50;;
52740;SDS011;38634;52.138;9.912;2022-11-20T13:35:04;13.20;;;3.50;;
52740;SDS011;38634;52.138;9.912;2022-11-20T13:37:58;14.35;;;3.80;;
52740;SDS011;38634;52.138;9.912;2022-11-20T13:40:56;12.75;;;3.33;;
52740;SDS011;38634;52.138;9.912;2022-11-20T13:44:15;9.80;;;3.20;;
52740;SDS011;38634;52.138;9.912;2022-11-20T13:47:23;13.35;;;3.60;;
52740;SDS011;38634;52.138;9.912;2022-11-20T13:50:13;12.23;;;3.33;;
52740;SDS011;38634;52.138;9.912;2022-11-20T13:59:56;11.82;;;3.85;;
52740;SDS011;38634;52.138;9.912;2022-11-20T14:02:41;13.75;;;4.07;;
52740;SDS011;38634;52.138;9.912;2022-11-20T14:05:27;41.25;;;9.88;;
52740;SDS011;38634;52.138;9.912;2022-11-20T14:08:14;40.58;;;8.60;;
52740;SDS011;38634;52.138;9.912;2022-11-20T14:14:15;38.33;;;9.23;;
52740;SDS011;38634;52.138;9.912;2022-11-20T14:17:05;44.30;;;8.85;;
52740;SDS011;38634;52.138;9.912;2022-11-20T14:20:05;19.75;;;5.25;;
52740;SDS011;38634;52.138;9.912;2022-11-20T14:22:55;48.40;;;9.95;;
52740;SDS011;38634;52.138;9.912;2022-11-20T14:25:43;42.92;;;9.43;;
52740;SDS011;38634;52.138;9.912;2022-11-20T14:28:29;20.00;;;5.85;;
52740;SDS011;38634;52.138;9.912;2022-11-20T14:31:24;39.58;;;9.75;;
52740;SDS011;38634;52.138;9.912;2022-11-20T14:34:26;28.55;;;6.75;;
52740;SDS011;38634;52.138;9.912;2022-11-20T14:37:17;43.60;;;8.88;;
52740;SDS011;38634;52.138;9.912;2022-11-20T14:43:18;14.60;;;5.35;;
52740;SDS011;38634;52.138;9.912;2022-11-20T14:46:05;43.63;;;10.73;;
52740;SDS011;38634;52.138;9.912;2022-11-20T14:48:56;31.63;;;8.18;;
52740;SDS011;38634;52.138;9.912;2022-11-20T14:51:41;17.20;;;5.32;;
52740;SDS011;38634;52.138;9.912;2022-11-20T14:54:26;31.07;;;7.90;;
52740;SDS011;38634;52.138;9.912;2022-11-20T14:57:30;33.33;;;7.88;;
52740;SDS011;38634;52.138;9.912;2022-11-20T15:00:20;39.30;;;8.65;;
52740;SDS011;38634;52.138;9.912;2022-11-20T15:03:13;33.72;;;7.43;;
52740;SDS011;38634;52.138;9.912;2022-11-20T15:06:00;22.20;;;7.25;;
52740;SDS011;38634;52.138;9.912;2022-11-20T15:08:51;40.50;;;9.18;;
52740;SDS011;38634;52.138;9.912;2022-11-20T15:11:36;19.80;;;5.88;;
52740;SDS011;38634;52.138;9.912;2022-11-20T15:14:22;19.48;;;5.90;;
52740;SDS011;38634;52.138;9.912;2022-11-20T15:17:09;36.10;;;8.30;;
52740;SDS011;38634;52.138;9.912;2022-11-20T15:19:54;38.08;;;8.68;;
52740;SDS011;38634;52.138;9.912;2022-11-20T15:22:39;22.80;;;6.05;;
52740;SDS011;38634;52.138;9.912;2022-11-20T15:25:24;16.92;;;4.97;;
52740;SDS011;38634;52.138;9.912;2022-11-20T15:28:16;29.63;;;7.18;;
52740;SDS011;38634;52.138;9.912;2022-11-20T15:31:03;26.08;;;7.00;;
52740;SDS011;38634;52.138;9.912;2022-11-20T15:33:48;17.58;;;6.32;;
52740;SDS011;38634;52.138;9.912;2022-11-20T15:36:33;21.95;;;7.13;;
52740;SDS011;38634;52.138;9.912;2022-11-20T15:39:17;39.15;;;9.07;;
52740;SDS011;38634;52.138;9.912;2022-11-20T15:42:02;40.10;;;9.18;;
52740;SDS011;38634;52.138;9.912;2022-11-20T15:44:46;19.80;;;6.13;;
52740;SDS011;38634;52.138;9.912;2022-11-20T15:47:33;18.08;;;5.43;;
52740;SDS011;38634;52.138;9.912;2022-11-20T15:50:18;33.75;;;8.70;;
52740;SDS011;38634;52.138;9.912;2022-11-20T15:53:03;39.95;;;9.57;;
52740;SDS011;38634;52.138;9.912;2022-11-20T15:55:48;31.90;;;8.20;;
52740;SDS011;38634;52.138;9.912;2022-11-20T15:58:33;15.38;;;5.13;;
52740;SDS011;38634;52.138;9.912;2022-11-20T16:01:18;18.05;;;5.85;;
52740;SDS011;38634;52.138;9.912;2022-11-20T16:04:09;36.60;;;9.18;;
52740;SDS011;38634;52.138;9.912;2022-11-20T16:06:55;20.45;;;6.55;;
52740;SDS011;38634;52.138;9.912;2022-11-20T16:09:40;17.45;;;5.60;;
52740;SDS011;38634;52.138;9.912;2022-11-20T16:12:24;24.95;;;6.85;;
52740;SDS011;38634;52.138;9.912;2022-11-20T16:15:28;15.80;;;5.88;;
52740;SDS011;38634;52.138;9.912;2022-11-20T16:18:31;15.68;;;5.72;;
52740;SDS011;38634;52.138;9.912;2022-11-20T16:21:16;18.55;;;5.60;;
52740;SDS011;38634;52.138;9.912;2022-11-20T16:24:02;31.30;;;7.57;;
52740;SDS011;38634;52.138;9.912;2022-11-20T16:26:48;32.85;;;7.93;;
52740;SDS011;38634;52.138;9.912;2022-11-20T16:29:33;21.35;;;6.35;;
52740;SDS011;38634;52.138;9.912;2022-11-20T16:32:17;13.50;;;4.45;;
52740;SDS011;38634;52.138;9.912;2022-11-20T16:35:02;22.77;;;6.20;;
52740;SDS011;38634;52.138;9.912;2022-11-20T16:37:47;30.83;;;7.80;;
52740;SDS011;38634;52.138;9.912;2022-11-20T16:40:31;34.42;;;7.93;;
52740;SDS011;38634;52.138;9.912;2022-11-20T16:43:16;16.00;;;4.88;;
52740;SDS011;38634;52.138;9.912;2022-11-20T16:46:01;18.67;;;5.55;;
52740;SDS011;38634;52.138;9.912;2022-11-20T16:49:00;35.78;;;9.10;;
52740;SDS011;38634;52.138;9.912;2022-11-20T16:51:47;15.18;;;5.53;;
52740;SDS011;38634;52.138;9.912;2022-11-20T16:54:32;22.55;;;6.35;;
52740;SDS011;38634;52.138;9.912;2022-11-20T16:57:16;38.00;;;8.73;;
52740;SDS011;38634;52.138;9.912;2022-11-20T17:00:01;39.38;;;9.65;;
52740;SDS011;38634;52.138;9.912;2022-11-20T17:02:47;14.95;;;4.88;;
52740;SDS011;38634;52.138;9.912;2022-11-20T17:05:32;16.85;;;5.05;;
52740;SDS011;38634;52.138;9.912;2022-11-20T17:08:21;30.30;;;8.07;;
52740;SDS011;38634;52.138;9.912;2022-11-20T17:11:06;35.05;;;9.10;;
52740;SDS011;38634;52.138;9.912;2022-11-20T17:13:53;16.27;;;5.30;;
52740;SDS011;38634;52.138;9.912;2022-11-20T17:16:39;21.58;;;6.43;;
52740;SDS011;38634;52.138;9.912;2022-11-20T17:19:24;37.17;;;8.80;;
52740;SDS011;38634;52.138;9.912;2022-11-20T17:22:08;39.17;;;9.75;;
52740;SDS011;38634;52.138;9.912;2022-11-20T17:24:53;21.33;;;6.07;;
52740;SDS011;38634;52.138;9.912;2022-11-20T17:27:37;18.20;;;5.63;;
52740;SDS011;38634;52.138;9.912;2022-11-20T17:30:22;25.73;;;6.57;;
52740;SDS011;38634;52.138;9.912;2022-11-20T17:33:07;40.38;;;8.82;;
52740;SDS011;38634;52.138;9.912;2022-11-20T17:35:52;29.70;;;7.00;;
52740;SDS011;38634;52.138;9.912;2022-11-20T17:38:36;19.13;;;5.40;;
52740;SDS011;38634;52.138;9.912;2022-11-20T17:41:21;17.83;;;6.18;;
52740;SDS011;38634;52.138;9.912;2022-11-20T17:44:08;29.17;;;7.20;;
52740;SDS011;38634;52.138;9.912;2022-11-20T17:46:54;37.92;;;7.68;;
52740;SDS011;38634;52.138;9.912;2022-11-20T17:49:39;23.17;;;6.05;;
52740;SDS011;38634;52.138;9.912;2022-11-20T17:52:23;16.33;;;5.60;;
52740;SDS011;38634;52.138;9.912;2022-11-20T17:55:08;26.10;;;7.25;;
52740;SDS011;38634;52.138;9.912;2022-11-20T17:57:53;45.28;;;10.00;;
52740;SDS011;38634;52.138;9.912;2022-11-20T18:00:39;34.50;;;7.65;;
52740;SDS011;38634;52.138;9.912;2022-11-20T18:03:24;20.67;;;5.68;;
52740;SDS011;38634;52.138;9.912;2022-11-20T18:06:19;23.65;;;6.53;;
52740;SDS011;38634;52.138;9.912;2022-11-20T18:09:06;34.78;;;8.23;;
52740;SDS011;38634;52.138;9.912;2022-11-20T18:11:50;20.15;;;5.95;;
52740;SDS011;38634;52.138;9.912;2022-11-20T18:14:35;11.35;;;4.22;;
52740;SDS011;38634;52.138;9.912;2022-11-20T18:17:19;15.30;;;5.35;;
52740;SDS011;38634;52.138;9.912;2022-11-20T18:20:04;6.90;;;3.25;;
52740;SDS011;38634;52.138;9.912;2022-11-20T18:22:51;8.05;;;3.50;;
52740;SDS011;38634;52.138;9.912;2022-11-20T18:25:36;6.07;;;3.58;;
52740;SDS011;38634;52.138;9.912;2022-11-20T18:28:21;8.50;;;3.92;;
52740;SDS011;38634;52.138;9.912;2022-11-20T18:31:07;7.97;;;3.97;;
52740;SDS011;38634;52.138;9.912;2022-11-20T18:33:52;5.80;;;3.10;;
52740;SDS011;38634;52.138;9.912;2022-11-20T18:36:38;6.38;;;3.80;;
52740;SDS011;38634;52.138;9.912;2022-11-20T18:39:25;6.63;;;3.15;;
52740;SDS011;38634;52.138;9.912;2022-11-20T18:42:10;8.18;;;3.47;;
52740;SDS011;38634;52.138;9.912;2022-11-20T18:45:15;10.73;;;3.45;;
52740;SDS011;38634;52.138;9.912;2022-11-20T18:48:00;11.88;;;3.72;;
52740;SDS011;38634;52.138;9.912;2022-11-20T18:50:45;12.00;;;3.70;;
52740;SDS011;38634;52.138;9.912;2022-11-20T18:53:30;11.35;;;3.80;;
52740;SDS011;38634;52.138;9.912;2022-11-20T18:56:14;12.85;;;5.28;;
52740;SDS011;38634;52.138;9.912;2022-11-20T18:59:00;10.30;;;4.03;;
52740;SDS011;38634;52.138;9.912;2022-11-20T19:01:46;27.13;;;6.38;;
52740;SDS011;38634;52.138;9.912;2022-11-20T19:04:32;12.25;;;3.95;;
52740;SDS011;38634;52.138;9.912;2022-11-20T19:07:17;11.10;;;4.30;;
52740;SDS011;38634;52.138;9.912;2022-11-20T19:10:01;11.88;;;3.95;;
52740;SDS011;38634;52.138;9.912;2022-11-20T19:12:46;9.80;;;4.05;;
52740;SDS011;38634;52.138;9.912;2022-11-20T19:15:31;12.15;;;3.90;;
52740;SDS011;38634;52.138;9.912;2022-11-20T19:18:16;13.68;;;4.18;;
52740;SDS011;38634;52.138;9.912;2022-11-20T19:21:07;10.18;;;4.25;;
52740;SDS011;38634;52.138;9.912;2022-11-20T19:24:01;12.77;;;4.50;;
52740;SDS011;38634;52.138;9.912;2022-11-20T19:26:47;8.20;;;3.03;;
52740;SDS011;38634;52.138;9.912;2022-11-20T19:29:31;12.10;;;3.97;;
52740;SDS011;38634;52.138;9.912;2022-11-20T19:32:16;11.50;;;4.00;;
52740;SDS011;38634;52.138;9.912;2022-11-20T19:35:01;11.95;;;3.90;;
52740;SDS011;38634;52.138;9.912;2022-11-20T19:37:46;11.55;;;3.65;;
52740;SDS011;38634;52.138;9.912;2022-11-20T19:40:30;11.68;;;4.00;;
52740;SDS011;38634;52.138;9.912;2022-11-20T19:43:15;11.82;;;3.72;;
52740;SDS011;38634;52.138;9.912;2022-11-20T19:46:00;9.60;;;4.20;;
52740;SDS011;38634;52.138;9.912;2022-11-20T19:48:44;13.45;;;6.93;;
52740;SDS011;38634;52.138;9.912;2022-11-20T19:51:30;17.30;;;6.07;;
52740;SDS011;38634;52.138;9.912;2022-11-20T19:54:17;10.85;;;5.10;;
52740;SDS011;38634;52.138;9.912;2022-11-20T19:57:01;4.13;;;3.15;;
52740;SDS011;38634;52.138;9.912;2022-11-20T19:59:46;7.30;;;3.58;;
52740;SDS011;38634;52.138;9.912;2022-11-20T20:02:31;8.55;;;3.45;;
52740;SDS011;38634;52.138;9.912;2022-11-20T20:05:15;11.88;;;3.78;;
52740;SDS011;38634;52.138;9.912;2022-11-20T20:08:00;7.60;;;2.92;;
52740;SDS011;38634;52.138;9.912;2022-11-20T20:10:45;11.88;;;3.78;;
52740;SDS011;38634;52.138;9.912;2022-11-20T20:13:29;4.72;;;3.38;;
52740;SDS011;38634;52.138;9.912;2022-11-20T20:16:15;6.80;;;4.25;;
52740;SDS011;38634;52.138;9.912;2022-11-20T20:19:04;10.73;;;3.75;;
52740;SDS011;38634;52.138;9.912;2022-11-20T20:21:48;11.38;;;4.57;;
52740;SDS011;38634;52.138;9.912;2022-11-20T20:24:33;9.50;;;3.67;;
52740;SDS011;38634;52.138;9.912;2022-11-20T20:27:17;11.13;;;3.53;;
52740;SDS011;38634;52.138;9.912;2022-11-20T20:30:05;5.50;;;3.45;;
52740;SDS011;38634;52.138;9.912;2022-11-20T20:32:54;4.63;;;2.90;;
52740;SDS011;38634;52.138;9.912;2022-11-20T20:35:39;8.32;;;3.70;;
52740;SDS011;38634;52.138;9.912;2022-11-20T20:38:24;8.73;;;3.75;;
52740;SDS011;38634;52.138;9.912;2022-11-20T20:41:09;11.30;;;4.30;;
52740;SDS011;38634;52.138;9.912;2022-11-20T20:43:53;11.80;;;4.32;;
52740;SDS011;38634;52.138;9.912;2022-11-20T20:46:57;9.10;;;3.20;;
52740;SDS011;38634;52.138;9.912;2022-11-20T20:49:42;11.43;;;3.65;;
52740;SDS011;38634;52.138;9.912;2022-11-20T20:52:26;7.40;;;2.75;;
52740;SDS011;38634;52.138;9.912;2022-11-20T20:55:11;11.80;;;3.92;;
52740;SDS011;38634;52.138;9.912;2022-11-20T20:57:56;9.23;;;4.40;;
52740;SDS011;38634;52.138;9.912;2022-11-20T21:00:40;13.48;;;4.03;;
52740;SDS011;38634;52.138;9.912;2022-11-20T21:03:25;6.90;;;3.15;;
52740;SDS011;38634;52.138;9.912;2022-11-20T21:06:10;10.45;;;3.47;;
52740;SDS011;38634;52.138;9.912;2022-11-20T21:08:55;13.23;;;3.92;;
52740;SDS011;38634;52.138;9.912;2022-11-20T21:11:41;11.80;;;3.78;;
52740;SDS011;38634;52.138;9.912;2022-11-20T21:14:25;6.13;;;3.17;;
52740;SDS011;38634;52.138;9.912;2022-11-20T21:17:10;9.50;;;3.80;;
52740;SDS011;38634;52.138;9.912;2022-11-20T21:19:55;8.63;;;3.30;;
52740;SDS011;38634;52.138;9.912;2022-11-20T21:22:39;4.50;;;3.13;;
52740;SDS011;38634;52.138;9.912;2022-11-20T21:25:24;4.47;;;3.55;;
52740;SDS011;38634;52.138;9.912;2022-11-20T21:28:08;6.70;;;3.13;;
52740;SDS011;38634;52.138;9.912;2022-11-20T21:31:00;13.15;;;4.43;;
52740;SDS011;38634;52.138;9.912;2022-11-20T21:33:53;10.90;;;3.47;;
52740;SDS011;38634;52.138;9.912;2022-11-20T21:36:39;11.77;;;3.70;;
52740;SDS011;38634;52.138;9.912;2022-11-20T21:39:23;6.95;;;5.80;;
52740;SDS011;38634;52.138;9.912;2022-11-20T21:42:08;5.55;;;4.20;;
52740;SDS011;38634;52.138;9.912;2022-11-20T21:44:53;18.40;;;8.43;;
52740;SDS011;38634;52.138;9.912;2022-11-20T21:47:37;11.50;;;10.27;;
52740;SDS011;38634;52.138;9.912;2022-11-20T21:50:22;13.30;;;4.60;;
52740;SDS011;38634;52.138;9.912;2022-11-20T21:53:06;10.68;;;4.97;;
52740;SDS011;38634;52.138;9.912;2022-11-20T21:55:54;11.23;;;3.60;;
52740;SDS011;38634;52.138;9.912;2022-11-20T21:58:40;11.52;;;4.07;;
52740;SDS011;38634;52.138;9.912;2022-11-20T22:01:27;15.25;;;5.80;;
52740;SDS011;38634;52.138;9.912;2022-11-20T22:04:13;10.25;;;4.13;;
52740;SDS011;38634;52.138;9.912;2022-11-20T22:06:58;11.88;;;3.40;;
52740;SDS011;38634;52.138;9.912;2022-11-20T22:09:43;10.80;;;3.67;;
52740;SDS011;38634;52.138;9.912;2022-11-20T22:12:28;14.75;;;5.25;;
52740;SDS011;38634;52.138;9.912;2022-11-20T22:15:12;12.63;;;3.80;;
52740;SDS011;38634;52.138;9.912;2022-11-20T22:17:57;12.73;;;4.22;;
52740;SDS011;38634;52.138;9.912;2022-11-20T22:21:01;9.00;;;3.50;;
52740;SDS011;38634;52.138;9.912;2022-11-20T22:23:50;11.15;;;3.58;;
52740;SDS011;38634;52.138;9.912;2022-11-20T22:26:35;11.73;;;3.67;;
52740;SDS011;38634;52.138;9.912;2022-11-20T22:29:20;12.95;;;4.03;;
52740;SDS011;38634;52.138;9.912;2022-11-20T22:32:04;9.30;;;3.25;;
52740;SDS011;38634;52.138;9.912;2022-11-20T22:34:49;7.75;;;3.50;;
52740;SDS011;38634;52.138;9.912;2022-11-20T22:37:33;8.63;;;3.25;;
52740;SDS011;38634;52.138;9.912;2022-11-20T22:40:18;9.52;;;3.20;;
52740;SDS011;38634;52.138;9.912;2022-11-20T22:43:03;11.07;;;4.30;;
52740;SDS011;38634;52.138;9.912;2022-11-20T22:45:47;9.10;;;3.30;;
52740;SDS011;38634;52.138;9.912;2022-11-20T22:48:32;11.68;;;3.55;;
52740;SDS011;38634;52.138;9.912;2022-11-20T22:51:19;10.75;;;4.47;;
52740;SDS011;38634;52.138;9.912;2022-11-20T22:54:09;8.75;;;3.13;;
52740;SDS011;38634;52.138;9.912;2022-11-20T22:56:54;9.90;;;4.35;;
52740;SDS011;38634;52.138;9.912;2022-11-20T22:59:39;9.35;;;3.28;;
52740;SDS011;38634;52.138;9.912;2022-11-20T23:02:24;19.05;;;4.93;;
52740;SDS011;38634;52.138;9.912;2022-11-20T23:05:09;9.85;;;3.30;;
52740;SDS011;38634;52.138;9.912;2022-11-20T23:07:54;10.00;;;4.53;;
52740;SDS011;38634;52.138;9.912;2022-11-20T23:10:38;6.03;;;3.03;;
52740;SDS011;38634;52.138;9.912;2022-11-20T23:13:23;11.15;;;3.70;;
52740;SDS011;38634;52.138;9.912;2022-11-20T23:18:58;5.65;;;2.97;;
52740;SDS011;38634;52.138;9.912;2022-11-20T23:21:46;11.07;;;3.33;;
52740;SDS011;38634;52.138;9.912;2022-11-20T23:24:31;7.78;;;3.15;;
52740;SDS011;38634;52.138;9.912;2022-11-20T23:27:15;11.45;;;3.85;;
52740;SDS011;38634;52.138;9.912;2022-11-20T23:30:00;10.23;;;3.42;;
52740;SDS011;38634;52.138;9.912;2022-11-20T23:32:44;9.93;;;3.80;;
52740;SDS011;38634;52.138;9.912;2022-11-20T23:35:29;10.57;;;4.97;;
52740;SDS011;38634;52.138;9.912;2022-11-20T23:38:13;10.23;;;3.83;;
52740;SDS011;38634;52.138;9.912;2022-11-20T23:40:58;10.05;;;3.47;;
52740;SDS011;38634;52.138;9.912;2022-11-20T23:43:43;10.60;;;4.50;;
52740;SDS011;38634;52.138;9.912;2022-11-20T23:46:27;11.27;;;3.75;;
52740;SDS011;38634;52.138;9.912;2022-11-20T23:49:12;11.82;;;3.90;;
52740;SDS011;38634;52.138;9.912;2022-11-20T23:51:57;12.15;;;5.43;;
52740;SDS011;38634;52.138;9.912;2022-11-20T23:54:41;9.65;;;3.30;;
52740;SDS011;38634;52.138;9.912;2022-11-20T23:57:26;12.48;;;3.63;;
